sensor_id;sensor_type;location;lat;lon;timestamp;P1;durP1;ratioP1;P2;durP2;ratioP2
66870;SDS011;53780;44.998;9.926;2022-08-19T07:21:42;5.90;;;2.30;;
66870;SDS011;53780;44.998;9.926;2022-08-19T07:24:47;9.30;;;2.63;;
66870;SDS011;53780;44.998;9.926;2022-08-19T07:27:51;5.38;;;1.60;;
66870;SDS011;53780;44.998;9.926;2022-08-19T07:35:03;3.10;;;0.60;;
66870;SDS011;53780;44.998;9.926;2022-08-19T07:38:08;2.47;;;0.40;;
66870;SDS011;53780;44.998;9.926;2022-08-19T07:41:14;3.00;;;0.40;;
66870;SDS011;53780;44.998;9.926;2022-08-19T07:44:21;3.90;;;0.60;;
66870;SDS011;53780;44.998;9.926;2022-08-19T07:47:26;2.13;;;0.43;;
66870;SDS011;53780;44.998;9.926;2022-08-19T07:50:30;2.70;;;0.68;;
66870;SDS011;53780;44.998;9.926;2022-08-19T07:53:35;2.60;;;0.50;;
66870;SDS011;53780;44.998;9.926;2022-08-19T07:56:40;2.00;;;0.40;;
66870;SDS011;53780;44.998;9.926;2022-08-19T07:59:44;2.38;;;0.47;;
66870;SDS011;53780;44.998;9.926;2022-08-19T08:02:48;2.90;;;0.50;;
66870;SDS011;53780;44.998;9.926;2022-08-19T08:05:55;2.75;;;0.60;;
66870;SDS011;53780;44.998;9.926;2022-08-19T08:09:18;2.90;;;0.40;;
66870;SDS011;53780;44.998;9.926;2022-08-19T08:12:30;2.97;;;0.60;;
66870;SDS011;53780;44.998;9.926;2022-08-19T08:15:38;3.28;;;0.50;;
66870;SDS011;53780;44.998;9.926;2022-08-19T08:18:42;3.60;;;0.30;;
66870;SDS011;53780;44.998;9.926;2022-08-19T08:21:47;2.90;;;0.60;;
66870;SDS011;53780;44.998;9.926;2022-08-19T08:24:52;3.73;;;0.50;;
66870;SDS011;53780;44.998;9.926;2022-08-19T08:27:56;1.80;;;0.40;;
66870;SDS011;53780;44.998;9.926;2022-08-19T08:31:03;2.47;;;0.60;;
66870;SDS011;53780;44.998;9.926;2022-08-19T08:34:07;3.15;;;0.70;;
66870;SDS011;53780;44.998;9.926;2022-08-19T08:37:12;3.17;;;0.70;;
66870;SDS011;53780;44.998;9.926;2022-08-19T08:40:29;3.27;;;0.93;;
66870;SDS011;53780;44.998;9.926;2022-08-19T08:43:38;4.45;;;0.90;;
66870;SDS011;53780;44.998;9.926;2022-08-19T08:46:51;3.50;;;1.48;;
66870;SDS011;53780;44.998;9.926;2022-08-19T08:50:01;5.15;;;1.90;;
66870;SDS011;53780;44.998;9.926;2022-08-19T08:53:05;4.90;;;2.15;;
66870;SDS011;53780;44.998;9.926;2022-08-19T08:56:11;5.23;;;2.00;;
66870;SDS011;53780;44.998;9.926;2022-08-19T08:59:19;5.28;;;2.25;;
66870;SDS011;53780;44.998;9.926;2022-08-19T09:02:26;5.68;;;2.60;;
66870;SDS011;53780;44.998;9.926;2022-08-19T09:05:35;6.10;;;2.58;;
66870;SDS011;53780;44.998;9.926;2022-08-19T09:09:04;6.40;;;2.20;;
66870;SDS011;53780;44.998;9.926;2022-08-19T09:16:06;4.93;;;1.90;;
66870;SDS011;53780;44.998;9.926;2022-08-19T09:19:13;5.63;;;2.00;;
66870;SDS011;53780;44.998;9.926;2022-08-19T09:22:19;5.47;;;2.20;;
66870;SDS011;53780;44.998;9.926;2022-08-19T09:25:26;4.30;;;1.90;;
66870;SDS011;53780;44.998;9.926;2022-08-19T09:28:30;4.63;;;2.20;;
66870;SDS011;53780;44.998;9.926;2022-08-19T09:31:34;5.00;;;2.00;;
66870;SDS011;53780;44.998;9.926;2022-08-19T09:34:38;4.75;;;1.20;;
66870;SDS011;53780;44.998;9.926;2022-08-19T09:37:42;3.80;;;1.38;;
66870;SDS011;53780;44.998;9.926;2022-08-19T09:40:47;4.50;;;1.13;;
66870;SDS011;53780;44.998;9.926;2022-08-19T09:43:53;3.53;;;1.20;;
66870;SDS011;53780;44.998;9.926;2022-08-19T09:47:01;4.82;;;0.95;;
66870;SDS011;53780;44.998;9.926;2022-08-19T09:50:08;3.55;;;0.73;;
66870;SDS011;53780;44.998;9.926;2022-08-19T09:53:13;2.40;;;0.60;;
66870;SDS011;53780;44.998;9.926;2022-08-19T09:56:18;5.25;;;1.10;;
66870;SDS011;53780;44.998;9.926;2022-08-19T09:59:22;4.53;;;1.00;;
66870;SDS011;53780;44.998;9.926;2022-08-19T10:02:26;3.10;;;0.70;;
66870;SDS011;53780;44.998;9.926;2022-08-19T10:05:32;2.70;;;0.60;;
66870;SDS011;53780;44.998;9.926;2022-08-19T10:08:52;3.15;;;0.70;;
66870;SDS011;53780;44.998;9.926;2022-08-19T10:11:56;3.33;;;0.85;;
66870;SDS011;53780;44.998;9.926;2022-08-19T10:15:01;2.70;;;0.70;;
66870;SDS011;53780;44.998;9.926;2022-08-19T10:18:05;2.90;;;0.60;;
66870;SDS011;53780;44.998;9.926;2022-08-19T10:21:18;3.55;;;0.80;;
66870;SDS011;53780;44.998;9.926;2022-08-19T10:24:24;4.45;;;0.63;;
66870;SDS011;53780;44.998;9.926;2022-08-19T10:27:30;2.75;;;0.85;;
66870;SDS011;53780;44.998;9.926;2022-08-19T10:30:35;3.03;;;0.70;;
66870;SDS011;53780;44.998;9.926;2022-08-19T10:33:40;2.90;;;0.88;;
66870;SDS011;53780;44.998;9.926;2022-08-19T10:36:44;3.65;;;1.23;;
66870;SDS011;53780;44.998;9.926;2022-08-19T10:39:48;2.95;;;0.80;;
66870;SDS011;53780;44.998;9.926;2022-08-19T10:42:53;4.43;;;1.13;;
66870;SDS011;53780;44.998;9.926;2022-08-19T10:45:58;5.73;;;1.10;;
66870;SDS011;53780;44.998;9.926;2022-08-19T10:49:03;4.20;;;1.13;;
66870;SDS011;53780;44.998;9.926;2022-08-19T10:52:09;5.60;;;1.30;;
66870;SDS011;53780;44.998;9.926;2022-08-19T10:55:31;3.70;;;1.27;;
66870;SDS011;53780;44.998;9.926;2022-08-19T10:58:53;3.53;;;1.20;;
66870;SDS011;53780;44.998;9.926;2022-08-19T11:02:01;3.53;;;1.20;;
66870;SDS011;53780;44.998;9.926;2022-08-19T11:05:06;4.90;;;1.40;;
66870;SDS011;53780;44.998;9.926;2022-08-19T11:08:14;5.30;;;1.40;;
66870;SDS011;53780;44.998;9.926;2022-08-19T11:11:17;4.43;;;1.08;;
66870;SDS011;53780;44.998;9.926;2022-08-19T11:14:21;3.78;;;1.15;;
66870;SDS011;53780;44.998;9.926;2022-08-19T11:17:27;4.30;;;1.20;;
66870;SDS011;53780;44.998;9.926;2022-08-19T11:20:30;4.43;;;1.30;;
66870;SDS011;53780;44.998;9.926;2022-08-19T11:23:34;3.40;;;1.40;;
66870;SDS011;53780;44.998;9.926;2022-08-19T11:26:39;3.22;;;1.25;;
66870;SDS011;53780;44.998;9.926;2022-08-19T11:29:44;5.20;;;1.40;;
66870;SDS011;53780;44.998;9.926;2022-08-19T11:32:49;3.30;;;0.63;;
66870;SDS011;53780;44.998;9.926;2022-08-19T11:35:53;3.05;;;0.60;;
66870;SDS011;53780;44.998;9.926;2022-08-19T11:38:57;3.00;;;0.88;;
66870;SDS011;53780;44.998;9.926;2022-08-19T11:42:01;3.38;;;0.80;;
66870;SDS011;53780;44.998;9.926;2022-08-19T11:45:26;3.90;;;1.20;;
66870;SDS011;53780;44.998;9.926;2022-08-19T11:48:31;3.77;;;1.30;;
66870;SDS011;53780;44.998;9.926;2022-08-19T11:51:35;3.65;;;1.45;;
66870;SDS011;53780;44.998;9.926;2022-08-19T11:54:40;6.32;;;3.00;;
66870;SDS011;53780;44.998;9.926;2022-08-19T11:57:43;7.55;;;3.22;;
66870;SDS011;53780;44.998;9.926;2022-08-19T12:00:47;7.28;;;3.42;;
66870;SDS011;53780;44.998;9.926;2022-08-19T12:03:52;3.93;;;1.30;;
66870;SDS011;53780;44.998;9.926;2022-08-19T12:06:58;2.70;;;0.80;;
66870;SDS011;53780;44.998;9.926;2022-08-19T12:10:02;2.85;;;1.02;;
66870;SDS011;53780;44.998;9.926;2022-08-19T12:13:06;3.53;;;0.60;;
66870;SDS011;53780;44.998;9.926;2022-08-19T12:16:12;2.40;;;0.65;;
66870;SDS011;53780;44.998;9.926;2022-08-19T12:19:19;3.20;;;0.50;;
66870;SDS011;53780;44.998;9.926;2022-08-19T12:22:22;3.30;;;0.70;;
66870;SDS011;53780;44.998;9.926;2022-08-19T12:25:26;2.10;;;0.60;;
66870;SDS011;53780;44.998;9.926;2022-08-19T12:28:30;3.03;;;0.50;;
66870;SDS011;53780;44.998;9.926;2022-08-19T12:31:35;2.30;;;0.60;;
66870;SDS011;53780;44.998;9.926;2022-08-19T12:34:39;2.63;;;0.53;;
66870;SDS011;53780;44.998;9.926;2022-08-19T12:37:43;3.03;;;0.60;;
66870;SDS011;53780;44.998;9.926;2022-08-19T12:40:47;3.33;;;0.80;;
66870;SDS011;53780;44.998;9.926;2022-08-19T12:43:53;3.08;;;0.70;;
66870;SDS011;53780;44.998;9.926;2022-08-19T12:46:57;2.85;;;0.77;;
66870;SDS011;53780;44.998;9.926;2022-08-19T12:50:02;2.80;;;0.90;;
66870;SDS011;53780;44.998;9.926;2022-08-19T12:53:06;3.20;;;0.90;;
66870;SDS011;53780;44.998;9.926;2022-08-19T12:56:13;2.70;;;1.00;;
66870;SDS011;53780;44.998;9.926;2022-08-19T12:59:18;3.25;;;1.10;;
66870;SDS011;53780;44.998;9.926;2022-08-19T13:02:22;3.60;;;1.48;;
66870;SDS011;53780;44.998;9.926;2022-08-19T13:05:27;4.30;;;1.40;;
66870;SDS011;53780;44.998;9.926;2022-08-19T13:08:34;3.53;;;1.10;;
66870;SDS011;53780;44.998;9.926;2022-08-19T13:11:39;4.28;;;1.10;;
66870;SDS011;53780;44.998;9.926;2022-08-19T13:14:43;3.25;;;1.20;;
66870;SDS011;53780;44.998;9.926;2022-08-19T13:17:49;3.90;;;1.67;;
66870;SDS011;53780;44.998;9.926;2022-08-19T13:20:55;7.87;;;1.53;;
66870;SDS011;53780;44.998;9.926;2022-08-19T13:24:00;4.25;;;1.30;;
66870;SDS011;53780;44.998;9.926;2022-08-19T13:27:04;3.55;;;1.30;;
66870;SDS011;53780;44.998;9.926;2022-08-19T13:30:10;4.78;;;1.20;;
66870;SDS011;53780;44.998;9.926;2022-08-19T13:33:33;3.78;;;1.42;;
66870;SDS011;53780;44.998;9.926;2022-08-19T13:36:39;3.30;;;1.10;;
66870;SDS011;53780;44.998;9.926;2022-08-19T13:39:42;4.57;;;1.45;;
66870;SDS011;53780;44.998;9.926;2022-08-19T13:42:47;3.80;;;1.60;;
66870;SDS011;53780;44.998;9.926;2022-08-19T13:45:53;4.43;;;1.67;;
66870;SDS011;53780;44.998;9.926;2022-08-19T13:48:59;3.40;;;1.45;;
66870;SDS011;53780;44.998;9.926;2022-08-19T13:52:04;5.20;;;1.20;;
66870;SDS011;53780;44.998;9.926;2022-08-19T13:55:09;3.50;;;1.00;;
66870;SDS011;53780;44.998;9.926;2022-08-19T13:58:17;2.70;;;0.95;;
66870;SDS011;53780;44.998;9.926;2022-08-19T14:01:21;4.28;;;1.00;;
66870;SDS011;53780;44.998;9.926;2022-08-19T14:04:26;4.15;;;1.00;;
66870;SDS011;53780;44.998;9.926;2022-08-19T14:07:31;3.27;;;0.97;;
66870;SDS011;53780;44.998;9.926;2022-08-19T14:10:35;3.08;;;0.80;;
66870;SDS011;53780;44.998;9.926;2022-08-19T14:13:39;2.95;;;0.90;;
66870;SDS011;53780;44.998;9.926;2022-08-19T14:16:42;2.97;;;0.82;;
66870;SDS011;53780;44.998;9.926;2022-08-19T14:19:46;2.55;;;0.82;;
66870;SDS011;53780;44.998;9.926;2022-08-19T14:22:51;3.33;;;0.80;;
66870;SDS011;53780;44.998;9.926;2022-08-19T14:26:07;3.70;;;0.90;;
66870;SDS011;53780;44.998;9.926;2022-08-19T14:29:13;2.80;;;0.98;;
66870;SDS011;53780;44.998;9.926;2022-08-19T14:32:17;2.45;;;0.70;;
66870;SDS011;53780;44.998;9.926;2022-08-19T14:35:22;3.00;;;0.90;;
66870;SDS011;53780;44.998;9.926;2022-08-19T14:38:26;3.37;;;0.70;;
66870;SDS011;53780;44.998;9.926;2022-08-19T14:41:34;2.50;;;0.70;;
66870;SDS011;53780;44.998;9.926;2022-08-19T14:44:39;3.20;;;0.80;;
66870;SDS011;53780;44.998;9.926;2022-08-19T14:47:44;2.63;;;0.80;;
66870;SDS011;53780;44.998;9.926;2022-08-19T14:50:48;2.38;;;0.80;;
66870;SDS011;53780;44.998;9.926;2022-08-19T14:53:52;3.73;;;0.70;;
66870;SDS011;53780;44.998;9.926;2022-08-19T14:56:57;2.80;;;0.80;;
66870;SDS011;53780;44.998;9.926;2022-08-19T15:00:02;2.75;;;0.85;;
66870;SDS011;53780;44.998;9.926;2022-08-19T15:03:07;3.55;;;0.90;;
66870;SDS011;53780;44.998;9.926;2022-08-19T15:06:11;2.85;;;0.90;;
66870;SDS011;53780;44.998;9.926;2022-08-19T15:09:15;3.63;;;1.00;;
66870;SDS011;53780;44.998;9.926;2022-08-19T15:12:19;4.32;;;1.13;;
66870;SDS011;53780;44.998;9.926;2022-08-19T15:15:22;4.03;;;0.93;;
66870;SDS011;53780;44.998;9.926;2022-08-19T15:18:26;3.88;;;1.20;;
66870;SDS011;53780;44.998;9.926;2022-08-19T15:21:30;2.72;;;1.20;;
66870;SDS011;53780;44.998;9.926;2022-08-19T15:24:34;3.67;;;1.30;;
66870;SDS011;53780;44.998;9.926;2022-08-19T15:27:39;4.60;;;1.20;;
66870;SDS011;53780;44.998;9.926;2022-08-19T15:30:44;3.05;;;1.00;;
66870;SDS011;53780;44.998;9.926;2022-08-19T15:33:48;3.17;;;1.25;;
66870;SDS011;53780;44.998;9.926;2022-08-19T15:36:52;3.60;;;1.40;;
66870;SDS011;53780;44.998;9.926;2022-08-19T15:39:56;4.30;;;1.03;;
66870;SDS011;53780;44.998;9.926;2022-08-19T15:43:00;5.05;;;1.20;;
66870;SDS011;53780;44.998;9.926;2022-08-19T15:46:03;4.65;;;1.10;;
66870;SDS011;53780;44.998;9.926;2022-08-19T15:49:08;3.85;;;1.20;;
66870;SDS011;53780;44.998;9.926;2022-08-19T15:52:14;3.55;;;1.10;;
66870;SDS011;53780;44.998;9.926;2022-08-19T15:55:18;3.97;;;1.30;;
66870;SDS011;53780;44.998;9.926;2022-08-19T15:58:24;3.42;;;1.10;;
66870;SDS011;53780;44.998;9.926;2022-08-19T16:01:47;3.42;;;1.30;;
66870;SDS011;53780;44.998;9.926;2022-08-19T16:05:10;3.90;;;1.20;;
66870;SDS011;53780;44.998;9.926;2022-08-19T16:08:34;3.70;;;1.38;;
66870;SDS011;53780;44.998;9.926;2022-08-19T16:11:37;2.67;;;1.00;;
66870;SDS011;53780;44.998;9.926;2022-08-19T16:14:42;4.30;;;1.23;;
66870;SDS011;53780;44.998;9.926;2022-08-19T16:17:46;3.78;;;1.40;;
66870;SDS011;53780;44.998;9.926;2022-08-19T16:20:50;3.80;;;1.30;;
66870;SDS011;53780;44.998;9.926;2022-08-19T16:23:54;2.90;;;1.17;;
66870;SDS011;53780;44.998;9.926;2022-08-19T16:26:59;7.33;;;1.53;;
66870;SDS011;53780;44.998;9.926;2022-08-19T16:30:04;4.72;;;1.20;;
66870;SDS011;53780;44.998;9.926;2022-08-19T16:33:08;5.82;;;1.30;;
66870;SDS011;53780;44.998;9.926;2022-08-19T16:36:12;5.22;;;1.50;;
66870;SDS011;53780;44.998;9.926;2022-08-19T16:39:16;4.40;;;1.60;;
66870;SDS011;53780;44.998;9.926;2022-08-19T16:42:20;3.57;;;1.20;;
66870;SDS011;53780;44.998;9.926;2022-08-19T16:45:24;4.70;;;1.30;;
66870;SDS011;53780;44.998;9.926;2022-08-19T16:48:29;3.58;;;1.70;;
66870;SDS011;53780;44.998;9.926;2022-08-19T16:51:33;3.20;;;1.42;;
66870;SDS011;53780;44.998;9.926;2022-08-19T16:54:37;3.85;;;1.42;;
66870;SDS011;53780;44.998;9.926;2022-08-19T16:57:42;5.67;;;1.50;;
66870;SDS011;53780;44.998;9.926;2022-08-19T17:00:46;3.88;;;1.58;;
66870;SDS011;53780;44.998;9.926;2022-08-19T17:03:52;4.20;;;1.80;;
66870;SDS011;53780;44.998;9.926;2022-08-19T17:06:57;4.22;;;1.60;;
66870;SDS011;53780;44.998;9.926;2022-08-19T17:10:02;5.13;;;1.80;;
66870;SDS011;53780;44.998;9.926;2022-08-19T17:13:07;3.87;;;1.57;;
66870;SDS011;53780;44.998;9.926;2022-08-19T17:16:11;3.90;;;1.50;;
66870;SDS011;53780;44.998;9.926;2022-08-19T17:19:16;4.25;;;1.77;;
66870;SDS011;53780;44.998;9.926;2022-08-19T17:22:19;4.05;;;1.52;;
66870;SDS011;53780;44.998;9.926;2022-08-19T17:25:24;3.72;;;1.60;;
66870;SDS011;53780;44.998;9.926;2022-08-19T17:28:28;3.40;;;1.60;;
66870;SDS011;53780;44.998;9.926;2022-08-19T17:31:33;3.55;;;1.40;;
66870;SDS011;53780;44.998;9.926;2022-08-19T17:34:37;3.38;;;1.60;;
66870;SDS011;53780;44.998;9.926;2022-08-19T17:37:41;3.38;;;1.50;;
66870;SDS011;53780;44.998;9.926;2022-08-19T17:40:45;4.93;;;1.63;;
66870;SDS011;53780;44.998;9.926;2022-08-19T17:43:49;3.67;;;1.60;;
66870;SDS011;53780;44.998;9.926;2022-08-19T17:46:54;5.85;;;1.90;;
66870;SDS011;53780;44.998;9.926;2022-08-19T17:49:58;4.15;;;2.20;;
66870;SDS011;53780;44.998;9.926;2022-08-19T17:53:02;5.22;;;2.47;;
66870;SDS011;53780;44.998;9.926;2022-08-19T17:56:07;4.75;;;2.60;;
66870;SDS011;53780;44.998;9.926;2022-08-19T17:59:13;5.47;;;2.83;;
66870;SDS011;53780;44.998;9.926;2022-08-19T18:02:17;9.60;;;3.72;;
66870;SDS011;53780;44.998;9.926;2022-08-19T18:05:24;8.32;;;3.28;;
66870;SDS011;53780;44.998;9.926;2022-08-19T18:08:31;4.68;;;2.30;;
66870;SDS011;53780;44.998;9.926;2022-08-19T18:11:34;5.03;;;1.88;;
66870;SDS011;53780;44.998;9.926;2022-08-19T18:14:38;4.80;;;2.27;;
66870;SDS011;53780;44.998;9.926;2022-08-19T18:17:45;4.63;;;2.20;;
66870;SDS011;53780;44.998;9.926;2022-08-19T18:20:49;5.18;;;2.25;;
66870;SDS011;53780;44.998;9.926;2022-08-19T18:23:54;7.72;;;2.20;;
66870;SDS011;53780;44.998;9.926;2022-08-19T18:26:57;7.45;;;2.20;;
66870;SDS011;53780;44.998;9.926;2022-08-19T18:30:03;4.80;;;1.93;;
66870;SDS011;53780;44.998;9.926;2022-08-19T18:33:09;5.00;;;2.08;;
66870;SDS011;53780;44.998;9.926;2022-08-19T18:36:17;4.82;;;2.17;;
66870;SDS011;53780;44.998;9.926;2022-08-19T18:39:21;4.00;;;2.03;;
66870;SDS011;53780;44.998;9.926;2022-08-19T18:42:43;5.93;;;2.10;;
66870;SDS011;53780;44.998;9.926;2022-08-19T18:46:07;6.43;;;1.97;;
66870;SDS011;53780;44.998;9.926;2022-08-19T18:49:30;4.70;;;2.13;;
66870;SDS011;53780;44.998;9.926;2022-08-19T18:52:35;6.75;;;2.80;;
66870;SDS011;53780;44.998;9.926;2022-08-19T18:55:40;6.20;;;2.10;;
66870;SDS011;53780;44.998;9.926;2022-08-19T18:58:43;5.95;;;2.35;;
66870;SDS011;53780;44.998;9.926;2022-08-19T19:01:47;5.80;;;2.17;;
66870;SDS011;53780;44.998;9.926;2022-08-19T19:04:54;5.50;;;2.30;;
66870;SDS011;53780;44.998;9.926;2022-08-19T19:07:58;4.40;;;2.33;;
66870;SDS011;53780;44.998;9.926;2022-08-19T19:11:03;5.95;;;2.42;;
66870;SDS011;53780;44.998;9.926;2022-08-19T19:14:08;7.30;;;2.75;;
66870;SDS011;53780;44.998;9.926;2022-08-19T19:17:13;7.33;;;2.63;;
66870;SDS011;53780;44.998;9.926;2022-08-19T19:20:17;7.20;;;2.80;;
66870;SDS011;53780;44.998;9.926;2022-08-19T19:23:22;7.43;;;2.50;;
66870;SDS011;53780;44.998;9.926;2022-08-19T19:26:26;4.95;;;2.25;;
66870;SDS011;53780;44.998;9.926;2022-08-19T19:29:31;5.65;;;2.42;;
66870;SDS011;53780;44.998;9.926;2022-08-19T19:32:38;4.67;;;2.20;;
66870;SDS011;53780;44.998;9.926;2022-08-19T19:35:43;4.90;;;2.80;;
66870;SDS011;53780;44.998;9.926;2022-08-19T19:38:48;6.20;;;3.38;;
66870;SDS011;53780;44.998;9.926;2022-08-19T19:41:53;9.77;;;4.00;;
66870;SDS011;53780;44.998;9.926;2022-08-19T19:44:57;6.22;;;4.20;;
66870;SDS011;53780;44.998;9.926;2022-08-19T19:48:03;7.43;;;4.13;;
66870;SDS011;53780;44.998;9.926;2022-08-19T19:51:07;6.53;;;4.10;;
66870;SDS011;53780;44.998;9.926;2022-08-19T19:54:11;6.85;;;3.90;;
66870;SDS011;53780;44.998;9.926;2022-08-19T19:57:18;6.38;;;3.78;;
66870;SDS011;53780;44.998;9.926;2022-08-19T20:00:22;7.97;;;4.10;;
66870;SDS011;53780;44.998;9.926;2022-08-19T20:03:27;7.53;;;3.90;;
66870;SDS011;53780;44.998;9.926;2022-08-19T20:06:32;6.90;;;3.50;;
66870;SDS011;53780;44.998;9.926;2022-08-19T20:09:36;8.57;;;3.80;;
66870;SDS011;53780;44.998;9.926;2022-08-19T20:12:40;6.35;;;4.00;;
66870;SDS011;53780;44.998;9.926;2022-08-19T20:15:44;6.55;;;3.40;;
66870;SDS011;53780;44.998;9.926;2022-08-19T20:18:47;9.63;;;3.30;;
66870;SDS011;53780;44.998;9.926;2022-08-19T20:21:53;6.55;;;3.42;;
66870;SDS011;53780;44.998;9.926;2022-08-19T20:24:58;7.07;;;3.20;;
66870;SDS011;53780;44.998;9.926;2022-08-19T20:28:03;7.00;;;3.13;;
66870;SDS011;53780;44.998;9.926;2022-08-19T20:31:08;8.05;;;2.80;;
66870;SDS011;53780;44.998;9.926;2022-08-19T20:34:12;7.47;;;3.00;;
66870;SDS011;53780;44.998;9.926;2022-08-19T20:37:17;7.60;;;3.15;;
66870;SDS011;53780;44.998;9.926;2022-08-19T20:40:21;6.05;;;2.95;;
66870;SDS011;53780;44.998;9.926;2022-08-19T20:43:25;6.68;;;3.00;;
66870;SDS011;53780;44.998;9.926;2022-08-19T20:46:29;7.38;;;3.00;;
66870;SDS011;53780;44.998;9.926;2022-08-19T20:49:33;6.43;;;3.00;;
66870;SDS011;53780;44.998;9.926;2022-08-19T20:52:38;5.45;;;2.78;;
66870;SDS011;53780;44.998;9.926;2022-08-19T20:55:42;5.93;;;3.30;;
66870;SDS011;53780;44.998;9.926;2022-08-19T20:58:48;8.45;;;3.60;;
66870;SDS011;53780;44.998;9.926;2022-08-19T21:01:53;7.05;;;3.53;;
66870;SDS011;53780;44.998;9.926;2022-08-19T21:04:57;8.23;;;3.70;;
66870;SDS011;53780;44.998;9.926;2022-08-19T21:08:01;12.95;;;4.35;;
66870;SDS011;53780;44.998;9.926;2022-08-19T21:11:06;10.57;;;4.00;;
66870;SDS011;53780;44.998;9.926;2022-08-19T21:14:12;11.73;;;3.90;;
66870;SDS011;53780;44.998;9.926;2022-08-19T21:17:16;12.25;;;4.05;;
